Time;durP1;ratioP1;P1;durP2;ratioP2;P2;SDS_P1;SDS_P2;PMS_P1;PMS_P2;Temp;Humidity;BMP_temperature;BMP_pressure;BME280_temperature;BME280_humidity;BME280_pressure;Samples;Min_cycle;Max_cycle;Signal;HPM_P1;HPM_P2
2022/08/31 00:04:08;;;;;;;0.85;0.17;;;17.10;99.90;;;;;;5069405;28;20128;-74
2022/08/31 00:06:34;;;;;;;0.70;0.20;;;17.10;99.90;;;;;;5069921;28;20072;-73
2022/08/31 00:09:02;;;;;;;0.77;0.20;;;17.10;99.90;;;;;;5069317;28;20048;-72
2022/08/31 00:11:29;;;;;;;0.75;0.17;;;17.10;99.90;;;;;;5069357;28;20106;-72
2022/08/31 00:13:58;;;;;;;0.52;0.10;;;17.00;99.90;;;;;;5069696;28;20079;-72
2022/08/31 00:16:26;;;;;;;0.63;0.20;;;17.00;99.90;;;;;;5068754;28;20530;-71
2022/08/31 00:18:52;;;;;;;0.50;0.20;;;17.00;99.90;;;;;;5069756;28;20182;-73
2022/08/31 00:21:20;;;;;;;1.38;0.30;;;17.40;99.90;;;;;;5069653;28;20040;-72
2022/08/31 00:23:47;;;;;;;0.35;0.10;;;17.40;99.90;;;;;;5068431;28;20121;-74
2022/08/31 00:26:14;;;;;;;1.15;0.10;;;16.90;99.90;;;;;;5065005;28;20163;-73
2022/08/31 00:28:40;;;;;;;4.07;0.08;;;16.90;99.90;;;;;;5069498;28;20253;-72
2022/08/31 00:31:05;;;;;;;1.33;0.25;;;17.00;99.90;;;;;;5068607;28;20131;-72
2022/08/31 00:33:31;;;;;;;0.60;0.20;;;16.90;99.90;;;;;;5067709;28;20055;-75
2022/08/31 00:35:57;;;;;;;0.20;0.10;;;17.80;99.90;;;;;;5069426;28;20048;-73
2022/08/31 00:38:22;;;;;;;0.10;0.00;;;16.90;99.90;;;;;;5067467;28;20037;-76
2022/08/31 00:40:48;;;;;;;1.40;0.30;;;17.70;99.90;;;;;;5069113;28;20507;-75
2022/08/31 00:43:40;;;;;;;1.00;0.10;;;16.80;99.90;;;;;;5068747;28;20037;-72
2022/08/31 00:46:07;;;;;;;1.05;0.20;;;16.80;99.90;;;;;;5069232;28;20157;-72
2022/08/31 00:48:37;;;;;;;0.13;0.10;;;16.80;99.90;;;;;;5069246;28;20553;-73
2022/08/31 00:51:03;;;;;;;0.10;0.10;;;16.80;99.90;;;;;;5068718;28;20392;-73
2022/08/31 00:53:29;;;;;;;1.58;0.10;;;16.80;99.90;;;;;;5068316;28;20713;-73
2022/08/31 00:55:55;;;;;;;1.48;0.20;;;16.80;99.90;;;;;;5069532;28;20063;-75
2022/08/31 00:58:21;;;;;;;0.68;0.20;;;16.70;99.90;;;;;;5068202;28;20040;-75
2022/08/31 01:00:47;;;;;;;2.28;0.32;;;17.40;99.90;;;;;;5070516;28;20504;-77
2022/08/31 01:03:14;;;;;;;0.38;0.28;;;17.00;99.90;;;;;;5072118;28;20047;-75
2022/08/31 01:05:41;;;;;;;0.68;0.30;;;17.80;99.90;;;;;;5070997;28;20040;-74
2022/08/31 01:08:07;;;;;;;0.70;0.10;;;16.50;99.90;;;;;;5072682;28;20055;-75
2022/08/31 01:10:36;;;;;;;1.65;0.10;;;17.00;99.90;;;;;;5072630;28;20079;-74
2022/08/31 01:13:03;;;;;;;0.70;0.03;;;17.40;99.90;;;;;;5071941;28;20115;-73
2022/08/31 01:15:30;;;;;;;0.17;0.17;;;16.50;99.90;;;;;;5072280;28;20051;-78
2022/08/31 01:17:59;;;;;;;1.55;0.20;;;16.50;99.90;;;;;;5071190;28;20094;-72
2022/08/31 01:20:33;;;;;;;1.10;0.10;;;16.50;99.90;;;;;;5071552;28;20548;-72
2022/08/31 01:23:07;;;;;;;0.77;0.20;;;16.50;99.90;;;;;;5072494;28;20082;-72
2022/08/31 01:25:34;;;;;;;;;;;16.70;99.90;;;;;;5072485;28;20075;-73
2022/08/31 01:28:03;;;;;;;0.52;0.10;;;16.70;99.90;;;;;;5066482;28;19920;-72
2022/08/31 01:30:29;;;;;;;1.52;0.52;;;16.40;99.90;;;;;;5071878;28;20496;-74
2022/08/31 01:32:54;;;;;;;0.30;0.20;;;16.40;99.90;;;;;;5071452;28;20147;-73
2022/08/31 01:35:20;;;;;;;0.93;0.20;;;16.30;99.90;;;;;;5072022;28;20041;-72
2022/08/31 01:37:46;;;;;;;0.15;0.10;;;16.30;99.90;;;;;;5070768;28;20593;-71
2022/08/31 01:40:12;;;;;;;0.20;0.13;;;16.40;99.90;;;;;;5069946;28;20098;-72
2022/08/31 01:42:38;;;;;;;1.58;0.10;;;16.20;99.90;;;;;;5066127;28;20041;-75
2022/08/31 01:45:05;;;;;;;0.28;0.20;;;16.30;99.90;;;;;;5067404;28;20060;-73
2022/08/31 01:47:30;;;;;;;0.82;0.20;;;16.20;99.90;;;;;;5070132;28;20055;-76
2022/08/31 01:49:56;;;;;;;0.70;0.20;;;16.20;99.90;;;;;;5071548;28;20032;-72
2022/08/31 01:52:21;;;;;;;0.55;0.10;;;16.10;99.90;;;;;;5071195;28;20062;-73
2022/08/31 01:54:47;;;;;;;0.43;0.10;;;16.10;99.90;;;;;;5069781;28;20111;-77
2022/08/31 01:57:14;;;;;;;0.40;0.20;;;16.80;99.90;;;;;;5071644;28;20036;-72
2022/08/31 01:59:40;;;;;;;0.20;0.10;;;16.10;99.90;;;;;;5071557;28;20045;-72
2022/08/31 02:02:06;;;;;;;0.52;0.15;;;16.00;99.90;;;;;;5070965;28;20052;-72
2022/08/31 02:04:32;;;;;;;2.15;0.13;;;16.10;99.90;;;;;;5071555;28;20037;-73
2022/08/31 02:06:59;;;;;;;2.22;1.10;;;16.00;99.90;;;;;;5070138;28;20032;-74
2022/08/31 02:09:26;;;;;;;3.38;0.57;;;15.90;99.90;;;;;;5069365;28;20522;-75
2022/08/31 02:11:52;;;;;;;0.57;0.10;;;15.90;99.90;;;;;;5071276;28;20075;-73
2022/08/31 02:14:19;;;;;;;0.20;0.20;;;15.90;99.90;;;;;;5070827;28;20122;-77
2022/08/31 02:16:44;;;;;;;2.65;0.13;;;15.80;99.90;;;;;;5070732;28;20178;-76
2022/08/31 02:19:11;;;;;;;1.10;0.30;;;15.80;99.90;;;;;;5063618;28;20478;-73
2022/08/31 02:21:36;;;;;;;2.58;0.20;;;15.80;99.90;;;;;;5071051;28;20361;-71
2022/08/31 02:24:03;;;;;;;0.30;0.30;;;15.70;99.90;;;;;;5070318;28;20032;-74
2022/08/31 02:26:29;;;;;;;0.43;0.10;;;15.60;99.90;;;;;;5065833;28;20091;-73
2022/08/31 02:28:55;;;;;;;0.30;0.20;;;15.60;99.90;;;;;;5070341;28;20048;-74
2022/08/31 02:31:20;;;;;;;2.80;0.10;;;15.50;99.90;;;;;;5069611;28;20131;-76
2022/08/31 02:33:47;;;;;;;0.30;0.20;;;15.50;99.90;;;;;;5071146;28;20380;-75
2022/08/31 02:36:12;;;;;;;0.28;0.10;;;15.50;99.90;;;;;;5068790;28;20040;-76
2022/08/31 02:38:38;;;;;;;0.32;0.15;;;15.60;99.90;;;;;;5070997;28;20047;-73
2022/08/31 02:41:05;;;;;;;1.02;0.20;;;15.50;99.90;;;;;;5070865;28;20044;-73
2022/08/31 02:43:31;;;;;;;0.95;0.20;;;15.50;99.90;;;;;;5069801;28;20060;-75
2022/08/31 02:45:57;;;;;;;0.40;0.40;;;16.50;99.90;;;;;;5070740;28;20502;-76
2022/08/31 02:48:23;;;;;;;0.30;0.22;;;15.40;99.90;;;;;;5070171;28;20037;-73
2022/08/31 02:50:51;;;;;;;0.75;0.20;;;15.40;99.90;;;;;;5070131;28;20060;-73
2022/08/31 02:53:18;;;;;;;0.85;0.10;;;15.30;99.90;;;;;;5070156;28;20087;-73
2022/08/31 02:55:44;;;;;;;0.22;0.10;;;15.30;99.90;;;;;;5061782;28;20052;-73
2022/08/31 02:58:11;;;;;;;0.20;0.10;;;15.30;99.90;;;;;;5069740;28;20520;-76
2022/08/31 03:00:38;;;;;;;0.50;0.10;;;15.20;99.90;;;;;;5070548;28;20051;-73
2022/08/31 03:03:03;;;;;;;2.38;0.20;;;15.70;99.90;;;;;;5070249;28;20480;-72
2022/08/31 03:05:29;;;;;;;2.25;0.30;;;15.10;99.90;;;;;;5070376;28;20071;-74
2022/08/31 03:07:55;;;;;;;0.70;0.10;;;15.10;99.90;;;;;;5069762;28;20522;-73
2022/08/31 03:10:23;;;;;;;2.15;0.40;;;15.50;99.90;;;;;;5070415;28;20040;-76
2022/08/31 03:12:50;;;;;;;1.75;0.10;;;16.10;99.90;;;;;;5069595;28;20043;-75
2022/08/31 03:15:18;;;;;;;0.10;0.05;;;15.00;99.90;;;;;;5068673;28;20583;-76
2022/08/31 03:17:43;;;;;;;1.48;0.28;;;15.00;99.90;;;;;;5062274;28;20049;-75
2022/08/31 03:20:10;;;;;;;0.28;0.13;;;15.00;99.90;;;;;;5069396;28;20041;-73
2022/08/31 03:22:36;;;;;;;0.20;0.20;;;15.00;99.90;;;;;;5069101;28;20502;-72
2022/08/31 03:25:04;;;;;;;0.57;0.30;;;15.10;99.90;;;;;;5070410;28;20048;-73
2022/08/31 03:27:29;;;;;;;1.60;0.20;;;14.90;99.90;;;;;;5062606;28;20075;-75
2022/08/31 03:29:55;;;;;;;0.85;0.10;;;14.90;99.90;;;;;;5069876;28;20197;-72
2022/08/31 03:32:21;;;;;;;1.00;0.10;;;14.90;99.90;;;;;;5069328;28;20434;-73
2022/08/31 03:34:51;;;;;;;1.30;0.10;;;14.90;99.90;;;;;;5070134;28;20378;-73
2022/08/31 03:37:16;;;;;;;1.20;0.10;;;14.90;99.90;;;;;;5069766;28;20550;-72
2022/08/31 03:39:42;;;;;;;2.60;0.40;;;14.80;99.90;;;;;;5069631;28;20044;-72
2022/08/31 03:42:08;;;;;;;0.95;0.45;;;15.00;99.90;;;;;;5069668;28;20380;-74
2022/08/31 03:44:33;;;;;;;0.68;0.38;;;14.80;99.90;;;;;;5069957;28;20063;-73
2022/08/31 03:46:59;;;;;;;1.33;0.20;;;15.20;99.90;;;;;;5069727;28;20037;-73
2022/08/31 03:49:25;;;;;;;1.40;0.15;;;14.80;99.90;;;;;;5069883;28;20044;-73
2022/08/31 03:51:51;;;;;;;2.17;0.40;;;14.80;99.90;;;;;;5069857;28;20041;-74
2022/08/31 03:54:18;;;;;;;1.67;0.40;;;14.70;99.90;;;;;;5067751;28;20128;-73
2022/08/31 03:56:45;;;;;;;0.32;0.13;;;15.50;99.90;;;;;;5070291;28;20037;-72
2022/08/31 03:59:12;;;;;;;1.30;0.30;;;14.70;99.90;;;;;;5070196;28;20115;-73
2022/08/31 04:01:38;;;;;;;0.13;0.13;;;15.80;99.90;;;;;;5068131;28;20080;-73
2022/08/31 04:04:04;;;;;;;0.22;0.20;;;15.70;99.90;;;;;;5069944;28;20456;-71
2022/08/31 04:06:30;;;;;;;2.10;0.22;;;15.20;99.90;;;;;;5069390;28;20127;-73
2022/08/31 04:08:56;;;;;;;0.85;0.50;;;15.60;99.90;;;;;;5068566;28;20044;-73
2022/08/31 04:11:22;;;;;;;1.23;0.30;;;14.60;99.90;;;;;;5069845;28;20064;-73
2022/08/31 04:13:48;;;;;;;1.75;0.30;;;15.20;99.90;;;;;;5069625;28;20403;-77
2022/08/31 04:16:19;;;;;;;0.88;0.20;;;14.50;99.90;;;;;;5067821;28;20036;-72
2022/08/31 04:18:45;;;;;;;2.28;0.20;;;14.50;99.90;;;;;;5069564;28;20041;-75
2022/08/31 04:21:20;;;;;;;1.08;0.17;;;14.50;99.90;;;;;;5069727;28;20045;-77
2022/08/31 04:23:47;;;;;;;0.88;0.40;;;14.50;99.90;;;;;;5069348;28;20127;-72
2022/08/31 04:26:18;;;;;;;0.20;0.20;;;14.50;99.90;;;;;;5063614;28;20532;-71
2022/08/31 04:28:44;;;;;;;1.08;0.20;;;15.00;99.90;;;;;;5068538;28;20808;-74
2022/08/31 04:31:10;;;;;;;0.60;0.20;;;14.50;99.90;;;;;;5069529;28;20040;-75
2022/08/31 04:33:39;;;;;;;3.10;0.22;;;14.40;99.90;;;;;;5070193;28;20045;-73
2022/08/31 04:36:08;;;;;;;2.35;0.30;;;14.40;99.90;;;;;;5071572;28;20048;-74
2022/08/31 04:38:35;;;;;;;10.07;7.40;;;14.40;99.90;;;;;;5072194;28;20377;-74
2022/08/31 04:41:05;;;;;;;9.15;7.05;;;14.40;99.90;;;;;;5073767;28;20043;-73
2022/08/31 04:43:31;;;;;;;6.65;4.50;;;14.40;99.90;;;;;;5072672;28;20044;-73
2022/08/31 04:45:57;;;;;;;3.83;2.90;;;15.10;99.90;;;;;;5073550;28;20036;-72
2022/08/31 04:48:23;;;;;;;3.85;2.00;;;14.30;99.90;;;;;;5068687;28;20480;-72
2022/08/31 04:50:49;;;;;;;2.38;0.70;;;15.20;99.90;;;;;;5072629;28;20028;-77
2022/08/31 04:53:15;;;;;;;2.58;0.60;;;14.50;99.90;;;;;;5072944;28;20037;-77
2022/08/31 04:55:42;;;;;;;2.25;0.47;;;14.30;99.90;;;;;;5065116;28;20409;-73
2022/08/31 04:58:12;;;;;;;1.42;0.47;;;14.30;99.90;;;;;;5072302;28;20115;-72
2022/08/31 05:00:41;;;;;;;3.25;0.25;;;14.20;99.90;;;;;;5064190;28;20076;-71
2022/08/31 05:03:07;;;;;;;1.48;0.30;;;14.30;99.90;;;;;;5061473;28;20033;-72
2022/08/31 05:05:37;;;;;;;1.00;0.30;;;14.20;99.90;;;;;;5068330;28;20123;-72
2022/08/31 05:08:03;;;;;;;0.70;0.43;;;14.20;99.90;;;;;;5066525;28;20047;-73
2022/08/31 05:10:28;;;;;;;1.05;0.70;;;14.20;99.90;;;;;;5072751;28;20041;-72
2022/08/31 05:12:54;;;;;;;6.78;4.47;;;14.20;99.90;;;;;;5072161;28;20041;-74
2022/08/31 05:15:20;;;;;;;33.10;26.45;;;14.50;99.90;;;;;;5072977;28;20495;-72
2022/08/31 05:17:45;;;;;;;10.27;8.57;;;14.20;99.90;;;;;;5071975;28;20067;-73
2022/08/31 05:20:12;;;;;;;4.20;3.17;;;14.30;99.90;;;;;;5072403;28;20391;-72
2022/08/31 05:22:37;;;;;;;1.08;0.88;;;14.20;99.90;;;;;;5072495;28;20052;-77
2022/08/31 05:25:05;;;;;;;1.58;0.73;;;14.20;99.90;;;;;;5072438;28;20040;-75
2022/08/31 05:27:32;;;;;;;1.30;0.40;;;14.20;99.90;;;;;;5065714;28;20044;-76
2022/08/31 05:29:58;;;;;;;1.90;0.32;;;15.00;99.90;;;;;;5068772;28;20049;-72
2022/08/31 05:32:23;;;;;;;1.02;0.40;;;14.20;99.90;;;;;;5067384;28;20120;-76
2022/08/31 05:34:50;;;;;;;0.80;0.50;;;14.50;99.90;;;;;;5068627;28;20055;-73
2022/08/31 05:37:17;;;;;;;1.02;0.43;;;14.20;99.90;;;;;;5065390;28;20082;-71
2022/08/31 05:39:42;;;;;;;0.77;0.60;;;14.20;99.90;;;;;;5071465;28;20067;-73
2022/08/31 05:42:08;;;;;;;2.08;0.43;;;14.20;99.90;;;;;;5065472;28;20485;-74
2022/08/31 05:44:35;;;;;;;2.28;0.45;;;14.20;99.90;;;;;;5072270;28;20044;-73
2022/08/31 05:47:01;;;;;;;26.17;18.50;;;14.20;99.90;;;;;;5071091;28;20052;-71
2022/08/31 05:49:27;;;;;;;23.95;18.80;;;14.20;99.90;;;;;;5071671;28;20040;-71
2022/08/31 05:51:53;;;;;;;17.02;11.85;;;14.20;99.90;;;;;;5071535;28;20472;-73
2022/08/31 05:54:18;;;;;;;6.25;5.00;;;13.90;99.90;;;;;;5071233;28;20047;-72
2022/08/31 05:56:44;;;;;;;4.43;2.78;;;14.20;99.90;;;;;;5071918;28;20045;-73
2022/08/31 05:59:11;;;;;;;3.20;1.67;;;14.20;99.90;;;;;;5071830;28;20048;-72
2022/08/31 06:01:38;;;;;;;2.95;1.60;;;15.40;99.90;;;;;;5069868;28;20032;-72
2022/08/31 06:04:05;;;;;;;2.47;0.60;;;14.20;99.90;;;;;;5071206;28;20086;-72
2022/08/31 06:06:31;;;;;;;4.25;0.30;;;14.30;99.90;;;;;;5072092;28;20059;-72
2022/08/31 06:08:57;;;;;;;0.82;0.40;;;15.10;99.90;;;;;;5068290;28;20029;-73
2022/08/31 06:11:26;;;;;;;1.10;0.60;;;14.30;99.90;;;;;;5071814;28;20044;-76
2022/08/31 06:13:55;;;;;;;0.93;0.20;;;14.30;99.90;;;;;;5071376;28;20041;-72
2022/08/31 06:16:21;;;;;;;0.35;0.15;;;14.70;99.90;;;;;;5071543;28;20041;-72
2022/08/31 06:18:49;;;;;;;0.82;0.20;;;14.40;99.90;;;;;;5071934;28;20044;-74
2022/08/31 06:21:19;;;;;;;2.05;0.30;;;14.40;99.90;;;;;;5071411;28;20060;-76
2022/08/31 06:23:46;;;;;;;0.60;0.20;;;14.40;99.90;;;;;;5070324;28;20044;-76
2022/08/31 06:26:14;;;;;;;0.80;0.30;;;14.60;99.90;;;;;;5065162;28;20067;-77
2022/08/31 06:28:45;;;;;;;3.53;0.40;;;15.60;99.90;;;;;;5066612;28;20174;-76
2022/08/31 06:31:28;;;;;;;1.50;0.43;;;14.50;99.90;;;;;;5070902;28;20087;-76
2022/08/31 06:33:56;;;;;;;2.40;0.70;;;14.60;99.90;;;;;;5071618;28;20110;-76
2022/08/31 06:36:25;;;;;;;4.05;0.63;;;14.70;99.90;;;;;;5069287;28;20060;-72
2022/08/31 06:38:51;;;;;;;2.05;0.60;;;14.70;99.90;;;;;;5071173;28;20237;-73
2022/08/31 06:41:22;;;;;;;3.30;0.20;;;14.80;99.90;;;;;;5071108;28;20124;-73
2022/08/31 06:43:49;;;;;;;3.10;0.50;;;14.80;99.90;;;;;;5070011;28;20119;-75
2022/08/31 06:46:17;;;;;;;1.42;0.32;;;14.80;99.90;;;;;;5069625;28;20048;-73
2022/08/31 06:48:43;;;;;;;2.35;0.20;;;14.90;99.90;;;;;;5071289;28;20037;-73
2022/08/31 06:51:10;;;;;;;3.78;0.30;;;15.00;99.90;;;;;;5070332;28;20073;-73
2022/08/31 06:53:41;;;;;;;0.85;0.17;;;15.00;99.90;;;;;;5067486;28;20076;-73
2022/08/31 06:56:10;;;;;;;0.45;0.10;;;15.20;99.90;;;;;;5069968;28;20049;-72
2022/08/31 06:58:36;;;;;;;3.05;0.20;;;15.10;99.90;;;;;;5069863;28;20036;-72
2022/08/31 07:01:13;;;;;;;0.52;0.13;;;15.20;99.90;;;;;;5062538;28;20047;-72
2022/08/31 07:03:42;;;;;;;1.85;0.30;;;15.30;99.90;;;;;;5069873;28;20041;-71
2022/08/31 07:06:16;;;;;;;3.13;0.95;;;15.30;99.90;;;;;;5053941;28;20362;-72
2022/08/31 07:08:43;;;;;;;9.23;7.80;;;15.40;99.90;;;;;;5070565;28;20111;-74
2022/08/31 07:11:33;;;;;;;2.22;0.65;;;15.40;99.90;;;;;;5069572;28;20056;-76
2022/08/31 07:14:00;;;;;;;2.03;0.35;;;15.50;99.90;;;;;;5069870;28;20081;-75
2022/08/31 07:16:27;;;;;;;1.00;0.30;;;15.50;99.90;;;;;;5070439;28;20036;-74
2022/08/31 07:18:54;;;;;;;4.40;0.20;;;15.60;99.90;;;;;;5068458;28;20040;-74
2022/08/31 07:21:24;;;;;;;0.57;0.20;;;15.70;99.90;;;;;;5070507;28;20127;-76
2022/08/31 07:23:50;;;;;;;0.73;0.30;;;15.70;99.90;;;;;;5069955;28;20085;-76
2022/08/31 07:26:23;;;;;;;3.55;0.22;;;15.70;99.90;;;;;;5064328;28;20041;-76
2022/08/31 07:28:52;;;;;;;0.10;0.10;;;15.80;99.90;;;;;;5066777;28;20055;-77
2022/08/31 07:31:29;;;;;;;1.20;0.05;;;15.90;99.90;;;;;;5067287;28;20037;-76
2022/08/31 07:33:56;;;;;;;1.92;0.30;;;15.90;99.90;;;;;;5070215;28;20068;-73
2022/08/31 07:36:23;;;;;;;3.30;0.32;;;16.00;99.90;;;;;;5069894;28;20043;-73
2022/08/31 07:44:19;;;;;;;2.33;0.30;;;16.10;99.90;;;;;;5062991;28;20044;-72
2022/08/31 07:46:46;;;;;;;2.47;0.38;;;16.20;99.90;;;;;;5070211;28;20056;-73
2022/08/31 07:49:13;;;;;;;2.15;0.30;;;16.30;99.90;;;;;;5069577;28;20040;-71
2022/08/31 07:51:45;;;;;;;1.77;0.20;;;16.30;99.90;;;;;;5069226;28;20052;-77
2022/08/31 07:54:12;;;;;;;4.32;0.40;;;17.00;99.90;;;;;;5062241;28;20461;-77
2022/08/31 07:56:41;;;;;;;1.33;0.28;;;16.40;99.90;;;;;;5070097;28;20040;-76
2022/08/31 07:59:07;;;;;;;0.80;0.30;;;16.40;99.90;;;;;;5060807;28;20055;-71
2022/08/31 08:01:36;;;;;;;0.80;0.20;;;16.50;99.90;;;;;;5070153;28;20052;-72
2022/08/31 08:04:05;;;;;;;1.55;0.38;;;16.60;99.90;;;;;;5070272;28;20101;-71
2022/08/31 08:06:31;;;;;;;1.15;0.15;;;16.60;99.90;;;;;;5069130;28;20048;-71
2022/08/31 08:09:04;;;;;;;0.57;0.20;;;17.50;99.90;;;;;;5071362;28;20031;-72
2022/08/31 08:11:31;;;;;;;4.18;0.28;;;16.80;99.90;;;;;;5073736;28;20044;-71
2022/08/31 08:13:57;;;;;;;0.52;0.20;;;17.60;99.90;;;;;;5065048;28;20051;-72
2022/08/31 08:16:23;;;;;;;3.30;0.30;;;17.00;99.90;;;;;;5071905;28;20041;-72
2022/08/31 08:18:49;;;;;;;1.95;0.30;;;17.10;99.90;;;;;;5066170;28;20087;-72
2022/08/31 08:21:15;;;;;;;3.45;0.10;;;17.00;99.90;;;;;;5067867;28;20032;-72
2022/08/31 08:23:40;;;;;;;3.58;0.28;;;17.10;99.90;;;;;;5063280;28;20052;-71
2022/08/31 08:26:08;;;;;;;0.50;0.10;;;17.30;99.90;;;;;;5068913;28;20419;-72
2022/08/31 08:28:34;;;;;;;2.03;0.20;;;17.30;99.90;;;;;;5066904;28;20060;-73
2022/08/31 08:31:02;;;;;;;1.23;0.20;;;17.90;99.90;;;;;;5062425;28;20052;-71
2022/08/31 08:33:30;;;;;;;0.30;0.10;;;17.40;99.90;;;;;;5063585;28;20051;-72
2022/08/31 08:35:58;;;;;;;1.65;0.10;;;17.50;99.90;;;;;;5058311;28;20599;-71
2022/08/31 08:38:29;;;;;;;1.25;0.20;;;17.50;99.90;;;;;;5057944;28;20119;-72
2022/08/31 08:40:58;;;;;;;0.85;0.43;;;17.50;99.90;;;;;;5061049;28;20033;-71
2022/08/31 08:43:30;;;;;;;1.98;0.30;;;17.50;99.90;;;;;;5059465;28;20083;-71
2022/08/31 08:45:57;;;;;;;0.93;0.20;;;17.60;99.90;;;;;;5061459;28;20068;-72
2022/08/31 08:48:26;;;;;;;3.97;0.30;;;17.70;99.90;;;;;;5064717;28;20044;-71
2022/08/31 08:50:53;;;;;;;1.83;0.30;;;17.70;99.90;;;;;;5067408;28;20037;-71
2022/08/31 08:53:24;;;;;;;4.07;0.17;;;18.10;99.90;;;;;;5067965;28;20040;-72
2022/08/31 08:55:50;;;;;;;0.63;0.10;;;17.90;99.90;;;;;;5065726;28;20076;-72
2022/08/31 08:58:18;;;;;;;0.73;0.25;;;18.00;99.90;;;;;;5065064;28;20173;-71
2022/08/31 09:00:51;;;;;;;0.73;0.20;;;18.60;99.90;;;;;;5067231;28;20447;-71
2022/08/31 09:03:48;;;;;;;0.47;0.15;;;18.00;99.90;;;;;;5056164;28;20044;-72
2022/08/31 09:06:33;;;;;;;0.82;0.40;;;18.10;99.90;;;;;;5059887;28;20466;-71
2022/08/31 09:09:07;;;;;;;;;;;18.10;99.90;;;;;;5057588;28;20045;-72
2022/08/31 09:11:53;;;;;;;2.83;0.20;;;18.20;99.90;;;;;;5063535;28;20326;-74
2022/08/31 09:14:23;;;;;;;4.85;2.60;;;18.20;99.90;;;;;;5056125;28;20507;-71
2022/08/31 09:17:02;;;;;;;2.15;0.50;;;18.00;99.90;;;;;;5059606;28;20067;-73
2022/08/31 09:19:56;;;;;;;1.33;0.15;;;18.30;99.90;;;;;;5065410;28;20040;-71
2022/08/31 09:22:13;;;;;;;1.65;0.10;;;18.40;99.90;;;;;;5070494;28;20040;-71
2022/08/31 09:24:39;;;;;;;2.05;0.20;;;18.40;99.90;;;;;;5071873;28;20043;-72
2022/08/31 09:27:17;;;;;;;0.57;0.20;;;18.50;99.90;;;;;;5070402;28;20115;-73
2022/08/31 09:29:53;;;;;;;0.95;0.17;;;19.40;99.90;;;;;;5069868;28;20048;-73
2022/08/31 09:32:26;;;;;;;2.10;0.10;;;18.60;99.90;;;;;;5069107;28;20452;-73
2022/08/31 09:35:00;;;;;;;2.90;0.10;;;18.70;99.90;;;;;;5068297;28;20086;-74
2022/08/31 09:37:32;;;;;;;1.48;0.15;;;18.70;99.90;;;;;;5070463;28;20118;-72
2022/08/31 09:40:31;;;;;;;1.20;0.17;;;18.80;99.90;;;;;;5071366;28;20143;-79
2022/08/31 09:43:22;;;;;;;0.85;0.20;;;18.90;99.90;;;;;;5068591;28;20044;-72
2022/08/31 09:46:00;;;;;;;1.30;0.10;;;19.00;99.90;;;;;;5070818;28;20060;-81
2022/08/31 09:48:50;;;;;;;0.35;0.20;;;19.10;99.90;;;;;;5071102;28;20041;-74
2022/08/31 09:51:29;;;;;;;1.20;0.10;;;19.20;99.90;;;;;;5071216;28;20119;-77
2022/08/31 09:56:58;;;;;;;1.30;0.17;;;19.80;99.90;;;;;;5065611;28;20052;-77
2022/08/31 09:59:40;;;;;;;1.88;0.45;;;19.70;99.90;;;;;;5055450;28;20575;-79
2022/08/31 10:02:21;;;;;;;3.47;0.20;;;19.50;99.90;;;;;;5047437;28;21426;-77
2022/08/31 10:04:56;;;;;;;3.63;0.50;;;19.70;99.90;;;;;;5043144;28;20060;-77
2022/08/31 10:07:55;;;;;;;7.03;0.30;;;19.70;99.90;;;;;;5066553;28;20500;-74
2022/08/31 10:10:26;;;;;;;2.05;0.40;;;19.70;99.80;;;;;;5066805;28;20043;-73
2022/08/31 10:12:56;;;;;;;1.02;0.10;;;19.70;99.80;;;;;;5065224;28;20443;-75
2022/08/31 10:15:42;;;;;;;2.15;0.20;;;19.70;99.80;;;;;;5047111;28;20048;-76
2022/08/31 10:18:13;;;;;;;0.60;0.10;;;19.80;99.50;;;;;;5066907;28;20079;-76
2022/08/31 10:20:50;;;;;;;1.00;0.20;;;19.70;99.50;;;;;;5043920;28;20127;-77
2022/08/31 10:23:25;;;;;;;2.05;0.20;;;19.80;99.50;;;;;;5068980;28;20032;-75
2022/08/31 10:25:57;;;;;;;2.25;0.30;;;19.90;99.60;;;;;;5069529;28;20088;-74
2022/08/31 10:28:39;;;;;;;0.70;0.20;;;20.20;99.60;;;;;;5070044;28;20045;-73
2022/08/31 10:31:21;;;;;;;3.92;0.30;;;20.10;99.10;;;;;;5068171;28;20051;-78
2022/08/31 10:37:16;;;;;;;0.57;0.10;;;20.30;99.00;;;;;;5065158;28;20601;-74
2022/08/31 10:39:52;;;;;;;2.90;0.13;;;20.50;98.80;;;;;;5066189;28;20071;-74
2022/08/31 10:42:28;;;;;;;0.68;0.13;;;20.60;98.60;;;;;;5068631;28;20052;-72
2022/08/31 10:45:03;;;;;;;3.25;0.55;;;20.70;98.40;;;;;;5068114;28;20044;-76
2022/08/31 10:47:29;;;;;;;1.40;0.23;;;20.80;98.50;;;;;;5069684;28;20059;-76
2022/08/31 10:49:58;;;;;;;1.90;0.10;;;20.80;98.30;;;;;;5070202;28;20120;-75
2022/08/31 10:52:33;;;;;;;1.33;0.68;;;21.10;98.30;;;;;;5067035;28;20045;-70
2022/08/31 10:55:31;;;;;;;0.65;0.10;;;20.90;98.20;;;;;;5067163;28;20063;-74
2022/08/31 10:58:14;;;;;;;0.52;0.20;;;21.00;98.20;;;;;;5078216;28;20149;-70
2022/08/31 11:00:50;;;;;;;0.93;0.82;;;21.10;98.20;;;;;;5051299;28;20047;-73
2022/08/31 11:03:30;;;;;;;1.40;0.77;;;21.20;98.40;;;;;;5066147;28;20037;-69
2022/08/31 11:06:11;;;;;;;0.45;0.10;;;21.30;98.20;;;;;;5069237;28;20036;-69
2022/08/31 11:08:47;;;;;;;2.15;0.20;;;21.30;97.80;;;;;;5067483;28;20554;-69
2022/08/31 11:11:36;;;;;;;4.47;0.30;;;21.30;98.10;;;;;;5067952;28;20548;-70
2022/08/31 11:14:27;;;;;;;1.13;0.20;;;21.20;97.70;;;;;;5069371;28;20487;-70
2022/08/31 11:17:26;;;;;;;4.80;0.40;;;21.20;97.40;;;;;;5067733;28;20043;-71
2022/08/31 11:20:06;;;;;;;0.55;0.20;;;21.00;97.30;;;;;;5067110;28;20043;-72
2022/08/31 11:22:38;;;;;;;1.98;0.82;;;21.00;97.40;;;;;;5061369;28;20040;-69
2022/08/31 11:25:57;;;;;;;3.67;3.03;;;20.90;97.40;;;;;;5067394;28;20033;-76
2022/08/31 11:28:40;;;;;;;0.95;0.30;;;20.90;97.30;;;;;;5055627;28;20135;-73
2022/08/31 11:31:19;;;;;;;0.82;0.20;;;21.00;97.10;;;;;;5057291;28;20063;-72
2022/08/31 11:33:49;;;;;;;0.68;0.22;;;21.20;96.90;;;;;;5065581;28;20463;-72
2022/08/31 11:36:48;;;;;;;0.47;0.15;;;21.60;96.60;;;;;;5054945;28;20048;-71
2022/08/31 11:39:25;;;;;;;0.30;0.10;;;21.40;96.30;;;;;;5063572;28;20033;-72
2022/08/31 11:41:52;;;;;;;1.45;0.30;;;21.80;96.00;;;;;;5058167;28;20145;-72
2022/08/31 11:44:38;;;;;;;1.08;0.10;;;21.70;95.90;;;;;;5068569;28;20464;-72
2022/08/31 11:47:15;;;;;;;3.20;0.45;;;21.90;96.20;;;;;;5070051;28;20045;-72
2022/08/31 11:49:51;;;;;;;0.35;0.15;;;22.10;95.70;;;;;;5061924;28;20076;-72
2022/08/31 11:52:37;;;;;;;1.55;0.10;;;22.30;95.50;;;;;;5069315;28;20041;-72
2022/08/31 11:55:18;;;;;;;3.33;0.28;;;22.40;95.30;;;;;;5070048;28;20097;-72
2022/08/31 11:58:06;;;;;;;1.17;0.20;;;22.50;94.80;;;;;;5062288;28;20071;-73
2022/08/31 12:01:01;;;;;;;1.88;1.73;;;22.60;94.50;;;;;;5068463;28;20094;-73
2022/08/31 12:03:42;;;;;;;1.60;0.65;;;22.70;94.10;;;;;;5069404;28;20056;-73
2022/08/31 12:06:32;;;;;;;0.35;0.30;;;22.80;94.10;;;;;;5069682;28;20032;-73
2022/08/31 12:09:09;;;;;;;2.13;0.38;;;22.90;93.80;;;;;;5064087;28;20045;-73
2022/08/31 12:11:50;;;;;;;1.08;0.10;;;23.00;93.20;;;;;;5068993;28;20041;-73
2022/08/31 12:14:48;;;;;;;0.00;0.00;;;23.00;92.60;;;;;;5069540;28;20493;-72
2022/08/31 12:17:50;;;;;;;0.20;0.10;;;23.20;92.40;;;;;;5069805;28;20115;-72
2022/08/31 12:20:22;;;;;;;1.75;0.22;;;23.30;91.60;;;;;;5066241;28;20052;-72
2022/08/31 12:23:34;;;;;;;0.88;0.10;;;23.40;91.80;;;;;;5069492;28;20097;-73
2022/08/31 12:26:10;;;;;;;2.13;0.22;;;23.50;91.80;;;;;;5064012;28;20041;-73
2022/08/31 12:29:16;;;;;;;2.38;0.20;;;23.60;91.40;;;;;;5067577;28;20643;-72
2022/08/31 12:31:58;;;;;;;14.93;13.48;;;23.60;90.90;;;;;;5061491;28;20036;-72
2022/08/31 12:34:24;;;;;;;1.52;0.50;;;23.80;91.00;;;;;;5060722;28;20090;-73
2022/08/31 12:36:50;;;;;;;1.08;0.50;;;23.90;90.80;;;;;;5059295;28;20446;-72
2022/08/31 12:39:22;;;;;;;1.25;0.20;;;23.90;90.50;;;;;;5053201;28;20490;-72
2022/08/31 12:41:50;;;;;;;0.50;0.10;;;24.10;90.20;;;;;;5057473;28;20516;-73
2022/08/31 12:44:32;;;;;;;1.85;0.20;;;24.10;90.20;;;;;;5064778;28;20040;-72
2022/08/31 12:47:21;;;;;;;1.65;0.20;;;24.10;90.00;;;;;;5064147;28;20537;-72
2022/08/31 12:50:06;;;;;;;0.80;0.17;;;24.20;89.00;;;;;;5062565;28;20078;-73
2022/08/31 12:52:56;;;;;;;0.73;0.10;;;24.30;89.00;;;;;;5068771;28;20082;-73
2022/08/31 12:55:27;;;;;;;5.10;0.25;;;24.30;89.00;;;;;;5071104;28;20082;-74
2022/08/31 12:58:21;;;;;;;0.80;0.10;;;24.40;88.40;;;;;;5066356;28;20036;-73
2022/08/31 13:00:47;;;;;;;0.60;0.20;;;24.50;87.30;;;;;;5064672;28;20144;-73
2022/08/31 13:03:22;;;;;;;0.30;0.10;;;24.70;86.50;;;;;;5072406;28;20032;-72
2022/08/31 13:06:12;;;;;;;3.58;0.40;;;24.60;85.80;;;;;;5067087;28;20493;-73
2022/08/31 13:09:00;;;;;;;3.05;1.17;;;24.50;86.10;;;;;;5072233;28;20041;-72
2022/08/31 13:11:38;;;;;;;0.52;0.38;;;24.40;85.40;;;;;;5072280;28;20229;-73
2022/08/31 13:14:21;;;;;;;0.43;0.10;;;24.50;84.60;;;;;;5072256;28;20365;-72
2022/08/31 13:17:03;;;;;;;2.10;0.10;;;24.50;84.20;;;;;;5064662;28;20046;-73
2022/08/31 13:19:31;;;;;;;0.80;0.20;;;24.50;84.00;;;;;;5072344;28;20132;-73
2022/08/31 13:22:03;;;;;;;3.75;0.15;;;24.50;84.30;;;;;;5069877;28;20040;-72
2022/08/31 13:24:35;;;;;;;0.40;0.10;;;24.50;84.40;;;;;;5062629;28;20040;-72